Time;durP1;ratioP1;P1;durP2;ratioP2;P2;SDS_P1;SDS_P2;PMS_P1;PMS_P2;Temp;Humidity;BMP_temperature;BMP_pressure;BME280_temperature;BME280_humidity;BME280_pressure;Samples;Min_cycle;Max_cycle;Signal;HPM_P1;HPM_P2
2021/12/08 00:02:20;;;;;;;14.55;9.95;;;;;;;0.41;80.28;99119.00;4924988;28;20054;-80
2021/12/08 00:04:46;;;;;;;15.57;10.43;;;;;;;0.38;79.69;99116.34;4970430;28;20101;-80
2021/12/08 00:07:12;;;;;;;15.02;9.52;;;;;;;0.35;78.88;99110.28;4941961;28;20043;-80
2021/12/08 00:14:54;;;;;;;15.40;10.50;;;;;;;0.10;79.68;99116.41;4959372;28;20035;-79
2021/12/08 00:17:20;;;;;;;16.33;11.52;;;;;;;-0.01;79.13;99127.13;4959000;28;20045;-79
2021/12/08 00:19:46;;;;;;;18.75;12.25;;;;;;;-0.08;79.65;99127.78;4953671;28;20047;-79
2021/12/08 00:22:12;;;;;;;17.30;11.88;;;;;;;0.07;80.68;99129.91;4925543;28;20406;-79
2021/12/08 00:24:37;;;;;;;14.18;9.85;;;;;;;0.19;80.66;99124.31;4956187;28;20038;-79
2021/12/08 00:27:03;;;;;;;17.13;11.95;;;;;;;0.32;80.41;99133.16;4957218;28;20573;-79
2021/12/08 00:29:30;;;;;;;15.93;10.60;;;;;;;0.20;79.36;99133.69;4957047;28;20787;-79
2021/12/08 00:31:56;;;;;;;17.30;11.45;;;;;;;0.23;79.55;99147.41;4949157;28;20502;-80
2021/12/08 00:34:22;;;;;;;15.27;9.85;;;;;;;0.32;79.90;99136.59;4970441;28;20513;-80
2021/12/08 00:36:51;;;;;;;16.15;11.07;;;;;;;0.27;79.44;99143.22;4930906;28;20038;-80
2021/12/08 00:39:17;;;;;;;17.83;12.27;;;;;;;0.29;79.38;99141.59;4944598;28;20105;-79
2021/12/08 00:41:42;;;;;;;17.77;12.07;;;;;;;0.29;79.07;99149.25;4951938;28;20521;-79
2021/12/08 00:44:08;;;;;;;15.65;10.50;;;;;;;0.16;78.54;99142.94;4940972;28;20027;-80
2021/12/08 00:46:34;;;;;;;18.30;11.95;;;;;;;0.12;79.36;99143.66;4952860;28;20049;-79
2021/12/08 00:49:00;;;;;;;16.10;11.73;;;;;;;0.16;79.17;99144.63;4976149;28;20042;-79
2021/12/08 00:51:25;;;;;;;17.20;11.65;;;;;;;0.18;79.26;99146.41;4960019;28;20049;-79
2021/12/08 00:53:51;;;;;;;16.83;11.02;;;;;;;0.20;78.46;99147.31;4959934;28;20051;-81
2021/12/08 00:56:17;;;;;;;17.73;11.35;;;;;;;0.27;78.87;99145.78;4976122;28;20042;-80
2021/12/08 00:58:43;;;;;;;15.25;9.82;;;;;;;0.37;79.38;99155.44;4960165;28;20041;-79
2021/12/08 01:01:09;;;;;;;17.13;10.38;;;;;;;0.41;79.07;99157.25;4943916;28;20105;-80
2021/12/08 01:03:35;;;;;;;16.35;9.35;;;;;;;0.45;78.94;99146.28;4976267;28;20130;-80
2021/12/08 01:06:01;;;;;;;20.83;13.02;;;;;;;0.57;79.38;99150.88;4959794;28;20493;-80
2021/12/08 01:08:28;;;;;;;16.60;11.52;;;;;;;0.44;77.62;99152.22;4956401;28;20057;-80
2021/12/08 01:10:55;;;;;;;15.02;10.45;;;;;;;0.41;77.93;99149.59;4955493;28;20418;-81
2021/12/08 01:13:21;;;;;;;15.65;10.48;;;;;;;0.37;77.70;99147.78;4951733;28;20126;-80
2021/12/08 01:15:49;;;;;;;16.88;12.18;;;;;;;0.46;78.73;99145.50;4955426;28;20073;-80
2021/12/08 01:18:15;;;;;;;18.23;11.77;;;;;;;0.49;78.27;99145.56;4975735;28;20069;-80
2021/12/08 01:20:41;;;;;;;18.10;12.18;;;;;;;0.50;77.73;99152.41;4960088;28;20370;-80
2021/12/08 01:23:07;;;;;;;17.02;11.60;;;;;;;0.47;77.50;99154.88;4958718;28;20098;-81
2021/12/08 01:25:32;;;;;;;18.83;12.13;;;;;;;0.56;78.29;99151.72;4976008;28;20034;-81
2021/12/08 01:27:58;;;;;;;19.83;12.43;;;;;;;0.41;76.54;99154.72;4973680;28;20041;-81
2021/12/08 01:30:24;;;;;;;22.45;13.77;;;;;;;0.46;77.38;99160.81;4943903;28;20038;-81
2021/12/08 01:32:52;;;;;;;16.65;11.35;;;;;;;0.37;76.18;99160.53;4959397;28;20093;-81
2021/12/08 01:35:18;;;;;;;19.65;12.27;;;;;;;0.28;76.27;99155.19;4960129;28;20132;-81
2021/12/08 01:37:43;;;;;;;19.40;12.52;;;;;;;0.21;75.95;99160.91;4956573;28;20078;-81
2021/12/08 01:40:11;;;;;;;15.60;10.35;;;;;;;0.30;77.24;99161.19;4956541;28;20062;-81
2021/12/08 01:42:43;;;;;;;19.35;13.50;;;;;;;-0.07;76.35;99167.75;4955521;28;20046;-82
2021/12/08 01:47:55;;;;;;;21.08;13.95;;;;;;;-0.50;78.38;99165.56;4948492;28;20046;-82
2021/12/08 01:50:20;;;;;;;19.05;12.65;;;;;;;-0.47;78.91;99159.69;4959607;28;20100;-83
2021/12/08 01:52:46;;;;;;;20.45;13.80;;;;;;;-0.46;78.69;99152.09;4959594;28;20042;-83
2021/12/08 01:55:12;;;;;;;18.88;12.80;;;;;;;-0.48;79.09;99152.88;4975826;28;20097;-81
2021/12/08 01:57:37;;;;;;;21.70;14.48;;;;;;;-0.60;78.84;99161.84;4975940;28;20398;-82
2021/12/08 02:00:07;;;;;;;;;;;;;;;-0.66;79.28;99165.88;4975899;28;20048;-82
2021/12/08 02:02:33;;;;;;;21.65;14.43;;;;;;;-0.82;79.74;99161.97;4993397;28;19914;-81
2021/12/08 02:04:59;;;;;;;22.13;14.32;;;;;;;-0.83;80.02;99165.31;4959596;28;20041;-82
2021/12/08 02:07:24;;;;;;;24.25;14.38;;;;;;;-0.86;80.45;99172.88;4959306;28;20038;-81
2021/12/08 02:09:50;;;;;;;23.42;14.32;;;;;;;-0.74;80.78;99170.72;4959755;28;20065;-82
2021/12/08 02:12:16;;;;;;;21.85;14.10;;;;;;;-0.68;79.83;99178.56;4975806;28;20069;-82
2021/12/08 02:14:42;;;;;;;22.00;13.48;;;;;;;-0.74;79.04;99180.91;4975905;28;20046;-82
2021/12/08 02:17:10;;;;;;;24.33;14.32;;;;;;;-0.72;79.55;99186.06;4943318;28;20082;-82
2021/12/08 02:19:38;;;;;;;22.65;14.43;;;;;;;-0.70;78.46;99185.28;4976366;28;20564;-83
2021/12/08 02:22:03;;;;;;;22.95;14.80;;;;;;;-0.80;78.95;99189.22;4944010;28;20070;-82
2021/12/08 02:24:29;;;;;;;22.48;14.23;;;;;;;-0.77;79.05;99193.56;4959948;28;20030;-82
2021/12/08 02:26:57;;;;;;;21.40;13.52;;;;;;;-0.78;78.32;99194.34;4962554;28;20054;-82
2021/12/08 02:29:34;;;;;;;22.35;13.40;;;;;;;-0.74;78.56;99183.44;4963500;28;20140;-81
2021/12/08 02:32:13;;;;;;;19.48;12.95;;;;;;;-0.79;77.52;99187.53;4965170;28;20458;-83
2021/12/08 02:48:20;;;;;;;23.40;14.38;;;;;;;-0.94;77.63;99190.44;4964326;28;20050;-83
2021/12/08 02:50:45;;;;;;;23.67;14.23;;;;;;;-1.00;77.70;99207.19;4988694;28;20042;-83
2021/12/08 02:53:13;;;;;;;24.20;14.63;;;;;;;-0.99;77.62;99219.97;4956043;28;20034;-82
2021/12/08 02:55:39;;;;;;;24.85;13.88;;;;;;;-1.04;77.76;99222.34;4949401;28;20520;-83
2021/12/08 02:58:05;;;;;;;21.77;13.40;;;;;;;-1.00;77.61;99219.91;4970057;28;20113;-82
2021/12/08 03:00:33;;;;;;;24.88;15.13;;;;;;;-1.12;77.27;99216.13;4958132;28;20416;-84
2021/12/08 03:03:00;;;;;;;27.52;15.40;;;;;;;-1.04;76.88;99222.34;4978500;28;20041;-84
2021/12/08 03:05:26;;;;;;;24.58;15.10;;;;;;;-1.12;76.74;99221.22;4931047;28;20377;-84
2021/12/08 03:07:51;;;;;;;24.85;15.13;;;;;;;-1.21;76.93;99223.44;4962542;28;20049;-84
2021/12/08 03:10:19;;;;;;;29.02;15.80;;;;;;;-1.17;77.77;99214.22;4946357;28;20066;-84
2021/12/08 03:12:45;;;;;;;23.83;15.38;;;;;;;-1.26;77.10;99217.31;4946379;28;20050;-85
2021/12/08 03:15:11;;;;;;;26.65;15.52;;;;;;;-1.23;77.07;99214.88;4942675;28;20046;-85
2021/12/08 03:17:37;;;;;;;27.98;15.35;;;;;;;-1.22;76.78;99221.72;4956991;28;20377;-84
2021/12/08 03:20:06;;;;;;;26.70;15.00;;;;;;;-1.26;76.91;99221.53;4963454;28;20120;-83
2021/12/08 03:22:34;;;;;;;25.63;14.55;;;;;;;-1.23;76.61;99224.22;4980455;28;20081;-82
2021/12/08 03:25:02;;;;;;;24.58;14.20;;;;;;;-1.28;77.03;99216.41;4947701;28;20069;-82
2021/12/08 03:27:34;;;;;;;26.40;15.73;;;;;;;-1.26;76.72;99219.84;4996433;28;20057;-84
2021/12/08 03:30:15;;;;;;;28.10;15.88;;;;;;;-1.18;76.43;99232.88;4978744;28;20057;-83
2021/12/08 03:32:41;;;;;;;28.40;16.13;;;;;;;-1.15;76.22;99228.72;4982623;28;20125;-83
2021/12/08 03:35:10;;;;;;;25.15;14.57;;;;;;;-1.06;76.46;99233.28;4997345;28;20126;-83
2021/12/08 03:37:38;;;;;;;27.10;13.75;;;;;;;-1.13;76.00;99242.38;4995033;28;20072;-83
2021/12/08 03:40:09;;;;;;;29.80;16.77;;;;;;;-1.19;75.91;99244.72;4960113;28;20043;-87
2021/12/08 03:42:37;;;;;;;25.92;15.10;;;;;;;-1.23;75.70;99234.38;4958755;28;20454;-87
2021/12/08 03:45:10;;;;;;;25.92;15.05;;;;;;;-1.25;76.26;99246.16;4947006;28;20034;-82
2021/12/08 03:47:39;;;;;;;27.35;16.63;;;;;;;-1.33;76.39;99259.50;4961020;28;20052;-80
2021/12/08 03:50:07;;;;;;;26.48;14.43;;;;;;;-1.25;77.00;99247.03;4991663;28;20126;-83
2021/12/08 03:52:32;;;;;;;27.80;15.27;;;;;;;-1.20;76.55;99240.44;4953636;28;20051;-85
2021/12/08 03:54:58;;;;;;;27.52;15.82;;;;;;;-1.34;76.44;99232.28;4966715;28;20121;-83
2021/12/08 03:57:24;;;;;;;30.33;18.02;;;;;;;-1.37;76.35;99236.44;4944086;28;20054;-85
2021/12/08 03:59:50;;;;;;;27.42;16.17;;;;;;;-1.40;76.49;99233.78;4942861;28;20039;-83
2021/12/08 04:02:16;;;;;;;31.42;17.17;;;;;;;-1.41;76.24;99265.97;4952130;28;20038;-82
2021/12/08 04:04:47;;;;;;;28.08;16.15;;;;;;;-1.39;76.58;99263.47;4966671;28;20034;-82
2021/12/08 04:07:15;;;;;;;29.05;16.55;;;;;;;-1.44;76.65;99265.00;4959032;28;20082;-82
2021/12/08 04:09:42;;;;;;;27.73;16.38;;;;;;;-1.49;76.38;99261.41;4952038;28;20491;-82
2021/12/08 04:12:09;;;;;;;31.70;17.20;;;;;;;-1.49;76.78;99261.41;4963737;28;20058;-81
2021/12/08 04:14:37;;;;;;;27.10;15.82;;;;;;;-1.51;76.94;99268.09;4974676;28;20129;-82
2021/12/08 04:17:10;;;;;;;30.50;16.63;;;;;;;-1.52;77.08;99272.31;4967962;28;20101;-82
2021/12/08 04:19:36;;;;;;;30.45;17.58;;;;;;;-1.47;76.87;99272.50;4989626;28;20089;-82
2021/12/08 04:22:26;;;;;;;25.60;14.77;;;;;;;-1.31;77.48;99275.69;4928531;28;20035;-81
2021/12/08 04:24:53;;;;;;;27.63;16.42;;;;;;;-1.32;76.45;99278.19;4974673;28;20137;-81
2021/12/08 04:27:22;;;;;;;30.55;17.00;;;;;;;-1.31;76.34;99277.34;4932604;28;20037;-82
2021/12/08 04:29:48;;;;;;;29.42;16.45;;;;;;;-1.44;76.34;99278.56;4966368;28;20414;-82
2021/12/08 04:32:15;;;;;;;29.73;17.50;;;;;;;-1.45;76.94;99283.63;4941822;28;20039;-83
2021/12/08 04:34:42;;;;;;;29.35;16.50;;;;;;;-1.41;76.83;99295.66;4938333;28;20043;-82
2021/12/08 04:37:17;;;;;;;26.33;15.43;;;;;;;-1.48;77.32;99291.13;4957738;28;20054;-82
2021/12/08 04:39:57;;;;;;;26.80;14.32;;;;;;;-1.46;76.52;99292.06;4957365;28;20092;-81
2021/12/08 04:42:34;;;;;;;27.52;15.93;;;;;;;-1.51;76.59;99296.97;4959738;28;20121;-82
2021/12/08 04:45:08;;;;;;;26.40;15.73;;;;;;;-1.49;76.68;99297.03;4971708;28;20054;-81
2021/12/08 04:47:37;;;;;;;29.60;17.67;;;;;;;-1.54;76.64;99296.84;4972672;28;20489;-82
2021/12/08 04:50:39;;;;;;;29.05;15.93;;;;;;;-1.59;77.42;99301.75;4993964;28;20038;-82
2021/12/08 04:53:41;;;;;;;28.50;16.35;;;;;;;-1.62;77.24;99313.50;4947104;28;20065;-82
2021/12/08 05:01:57;;;;;;;27.13;15.88;;;;;;;-1.56;77.29;99311.16;4947746;28;20050;-82
2021/12/08 05:07:13;;;;;;;26.00;14.70;;;;;;;-1.37;76.35;99317.84;4927318;28;20050;-82
2021/12/08 05:09:36;;;;;;;25.38;14.32;;;;;;;-1.32;76.05;99326.53;4958524;28;20053;-83
2021/12/08 05:12:12;;;;;;;26.40;14.88;;;;;;;-1.43;75.55;99322.69;4956999;28;20113;-84
2021/12/08 05:14:39;;;;;;;23.50;14.38;;;;;;;-1.43;76.14;99321.00;4957214;28;20546;-83
2021/12/08 05:17:11;;;;;;;25.52;14.82;;;;;;;-1.39;75.70;99314.38;4976778;28;20030;-82
2021/12/08 05:19:43;;;;;;;23.02;13.63;;;;;;;-1.44;75.37;99306.56;4978266;28;20125;-82
2021/12/08 05:22:17;;;;;;;22.67;13.85;;;;;;;-1.39;75.51;99304.19;4947112;28;20113;-83
2021/12/08 05:24:45;;;;;;;24.45;15.02;;;;;;;-1.46;74.76;99317.50;4942689;28;20043;-82
2021/12/08 05:27:14;;;;;;;25.35;15.23;;;;;;;-1.50;75.31;99308.03;4956208;28;20493;-82
2021/12/08 05:29:46;;;;;;;25.70;15.30;;;;;;;-1.64;75.37;99317.66;4976981;28;20453;-81
2021/12/08 05:32:12;;;;;;;26.88;14.63;;;;;;;-1.70;76.00;99320.81;4977183;28;20125;-82
2021/12/08 05:34:38;;;;;;;27.38;16.10;;;;;;;-1.73;76.45;99332.56;4962264;28;20129;-81
2021/12/08 05:37:04;;;;;;;25.75;14.73;;;;;;;-1.71;76.34;99326.72;4961268;28;20149;-83
2021/12/08 05:39:30;;;;;;;24.05;14.05;;;;;;;-1.72;75.98;99334.28;4977536;28;20037;-83
2021/12/08 05:41:59;;;;;;;30.38;17.08;;;;;;;-1.80;76.39;99336.53;4976792;28;20497;-82
2021/12/08 05:44:25;;;;;;;24.65;15.27;;;;;;;-1.83;76.48;99356.75;4961006;28;20046;-82
2021/12/08 05:46:53;;;;;;;26.38;15.40;;;;;;;-1.91;76.88;99346.28;4952885;28;20050;-82
2021/12/08 05:49:18;;;;;;;26.42;14.95;;;;;;;-1.87;76.44;99359.97;4965117;28;20390;-81
2021/12/08 05:51:45;;;;;;;27.30;15.18;;;;;;;-1.91;76.98;99348.81;4960502;28;20043;-82
2021/12/08 05:54:23;;;;;;;24.40;13.50;;;;;;;-1.88;76.78;99337.88;4948491;28;20047;-82
2021/12/08 05:56:51;;;;;;;24.40;15.45;;;;;;;-1.87;75.91;99349.81;4974703;28;20233;-84
2021/12/08 05:59:17;;;;;;;30.38;16.75;;;;;;;-1.94;76.63;99347.81;4941510;28;20039;-82
2021/12/08 06:02:01;;;;;;;28.13;16.60;;;;;;;-1.86;77.37;99344.78;4962304;28;20436;-81
2021/12/08 06:04:28;;;;;;;25.27;14.07;;;;;;;-1.71;76.83;99352.16;4953169;28;20126;-83
2021/12/08 06:06:54;;;;;;;29.63;16.60;;;;;;;-1.83;75.88;99352.53;4964147;28;20034;-82
2021/12/08 06:09:21;;;;;;;26.67;16.65;;;;;;;-1.94;76.55;99357.97;4981177;28;20042;-82
2021/12/08 06:11:47;;;;;;;22.48;12.50;;;;;;;-1.86;77.05;99362.56;4949000;28;20046;-83
2021/12/08 06:14:13;;;;;;;27.00;14.10;;;;;;;-1.86;76.13;99370.19;4944907;28;20082;-83
2021/12/08 06:16:41;;;;;;;26.02;16.00;;;;;;;-1.78;75.80;99379.81;4975270;28;20097;-81
2021/12/08 06:19:07;;;;;;;29.83;16.17;;;;;;;-1.90;75.41;99387.81;4948551;28;20476;-82
2021/12/08 06:21:33;;;;;;;28.50;15.70;;;;;;;-1.98;75.48;99379.00;4948554;28;20370;-83
2021/12/08 06:23:59;;;;;;;26.80;15.70;;;;;;;-1.95;76.20;99392.72;4966799;28;20097;-80
2021/12/08 06:26:26;;;;;;;21.90;12.45;;;;;;;-1.91;76.46;99388.63;4939606;28;20094;-82
2021/12/08 06:28:52;;;;;;;32.30;16.05;;;;;;;-1.85;75.66;99399.91;4945231;28;20035;-82
2021/12/08 06:31:19;;;;;;;28.13;15.25;;;;;;;-1.72;75.54;99403.81;4953757;28;20038;-81
2021/12/08 06:33:44;;;;;;;26.65;15.32;;;;;;;-1.73;75.01;99396.13;4952393;28;20054;-83
2021/12/08 06:36:13;;;;;;;27.83;16.60;;;;;;;-1.81;74.64;99421.25;4960465;28;20038;-83
2021/12/08 06:38:42;;;;;;;33.20;18.85;;;;;;;-1.88;75.10;99426.88;4990035;28;20053;-82
2021/12/08 06:41:09;;;;;;;31.05;17.10;;;;;;;-1.97;75.73;99418.84;4980542;28;20041;-82
2021/12/08 06:43:41;;;;;;;30.85;17.15;;;;;;;-2.05;75.73;99426.19;4980766;28;20573;-83
2021/12/08 06:46:07;;;;;;;25.63;13.05;;;;;;;-1.88;76.11;99430.31;4949916;28;20074;-84
2021/12/08 06:48:37;;;;;;;32.47;17.83;;;;;;;-1.87;75.97;99416.78;4964486;28;20034;-83
2021/12/08 06:51:13;;;;;;;27.42;15.07;;;;;;;-1.88;75.76;99426.88;4981004;28;20053;-81
2021/12/08 06:53:40;;;;;;;30.70;16.17;;;;;;;-1.84;76.29;99421.09;4964595;28;20045;-82
2021/12/08 06:56:28;;;;;;;27.33;15.88;;;;;;;-1.88;74.98;99434.50;4949293;28;20038;-83
2021/12/08 06:58:56;;;;;;;27.40;14.95;;;;;;;-1.84;75.12;99428.72;4964580;28;20038;-81
2021/12/08 07:01:39;;;;;;;26.95;15.13;;;;;;;-1.81;74.76;99429.72;4964051;28;20117;-82
2021/12/08 07:07:19;;;;;;;26.92;15.57;;;;;;;-1.94;75.18;99439.34;4972689;28;20132;-82
2021/12/08 07:09:57;;;;;;;32.58;17.55;;;;;;;-2.04;74.52;99438.09;4964062;28;20104;-82
2021/12/08 07:12:27;;;;;;;35.88;19.45;;;;;;;-1.89;75.00;99441.25;4959769;28;20058;-84
2021/12/08 07:15:02;;;;;;;31.83;17.50;;;;;;;-2.07;74.18;99433.72;4964471;28;20046;-83
2021/12/08 07:17:31;;;;;;;30.73;16.60;;;;;;;-2.07;75.02;99433.72;4980801;28;20100;-83
2021/12/08 07:20:14;;;;;;;29.02;16.48;;;;;;;-2.10;74.72;99423.44;4981434;28;20038;-83
2021/12/08 07:22:42;;;;;;;26.55;15.02;;;;;;;-2.04;74.62;99435.53;4983973;28;20045;-82
2021/12/08 07:25:07;;;;;;;28.52;15.85;;;;;;;-1.94;74.72;99424.94;4948711;28;20045;-83
2021/12/08 07:27:34;;;;;;;26.75;15.40;;;;;;;-2.03;74.40;99424.56;4979606;28;20034;-83
2021/12/08 07:30:03;;;;;;;27.83;15.43;;;;;;;-1.99;74.48;99415.41;4965434;28;20044;-84
2021/12/08 07:32:34;;;;;;;31.23;17.00;;;;;;;-2.05;74.58;99424.50;4965815;28;20363;-85
2021/12/08 07:35:02;;;;;;;30.42;16.98;;;;;;;-2.07;74.16;99415.06;4966781;28;20056;-84
2021/12/08 07:37:30;;;;;;;30.00;15.55;;;;;;;-2.05;74.82;99411.78;4964414;28;20038;-83
2021/12/08 07:39:59;;;;;;;29.25;16.38;;;;;;;-2.14;74.58;99419.03;4976159;28;20041;-83
2021/12/08 07:42:37;;;;;;;30.38;17.70;;;;;;;-2.28;74.60;99422.66;4956441;28;20030;-83
2021/12/08 07:45:07;;;;;;;27.23;15.15;;;;;;;-2.07;75.13;99421.00;4997252;28;20046;-82
2021/12/08 07:47:33;;;;;;;31.08;17.40;;;;;;;-2.19;74.54;99412.03;4950784;28;20038;-82
2021/12/08 07:50:22;;;;;;;25.30;13.98;;;;;;;-2.17;74.65;99438.34;4948629;28;20037;-81
2021/12/08 07:52:49;;;;;;;31.98;17.83;;;;;;;-2.12;74.88;99449.59;4978589;28;20478;-83
2021/12/08 07:55:21;;;;;;;29.10;15.80;;;;;;;-2.24;74.53;99449.09;4938092;28;20489;-81
2021/12/08 07:57:47;;;;;;;31.80;18.00;;;;;;;-2.34;74.93;99443.59;4948889;28;20042;-84
2021/12/08 08:00:37;;;;;;;30.33;17.30;;;;;;;-2.27;74.69;99439.63;4979303;28;20080;-82
2021/12/08 08:03:04;;;;;;;22.38;13.02;;;;;;;-2.15;74.80;99452.88;4976713;28;20038;-83
2021/12/08 08:05:32;;;;;;;30.05;16.38;;;;;;;-2.07;74.81;99448.97;4978527;28;20479;-81
2021/12/08 08:08:03;;;;;;;27.77;15.55;;;;;;;-2.08;74.75;99447.25;4975716;28;20046;-82
2021/12/08 08:10:30;;;;;;;27.27;16.75;;;;;;;-2.18;74.62;99431.56;4979750;28;20097;-83
2021/12/08 08:13:00;;;;;;;35.65;20.65;;;;;;;-2.10;74.68;99423.44;4948950;28;20078;-83
2021/12/08 08:15:28;;;;;;;22.20;12.88;;;;;;;-2.08;75.06;99432.00;4945122;28;20043;-85
2021/12/08 08:17:55;;;;;;;25.20;14.10;;;;;;;-1.97;74.80;99421.41;4957781;28;20034;-81
2021/12/08 08:20:25;;;;;;;28.80;16.02;;;;;;;-1.96;74.06;99410.44;4943501;28;20088;-81
2021/12/08 08:22:51;;;;;;;30.10;15.75;;;;;;;-1.80;73.82;99426.38;4942126;28;20080;-82
2021/12/08 08:25:24;;;;;;;25.98;15.95;;;;;;;-1.84;73.17;99421.09;4959046;28;20130;-82
2021/12/08 08:27:50;;;;;;;27.42;15.18;;;;;;;-1.91;73.12;99427.63;4937547;28;20078;-83
2021/12/08 08:30:19;;;;;;;27.00;15.77;;;;;;;-1.96;73.23;99433.31;4956765;28;20048;-82
2021/12/08 08:32:48;;;;;;;29.08;15.25;;;;;;;-2.02;73.93;99440.69;4955232;28;20074;-86
2021/12/08 08:35:33;;;;;;;26.92;16.65;;;;;;;-2.26;74.11;99417.63;4954624;28;20113;-83
2021/12/08 08:38:00;;;;;;;24.35;14.27;;;;;;;-2.22;73.91;99432.22;4958927;28;20074;-81
2021/12/08 08:40:57;;;;;;;23.75;13.85;;;;;;;-2.13;74.02;99438.56;4956481;28;20034;-83
2021/12/08 08:43:22;;;;;;;23.75;14.07;;;;;;;-2.17;73.81;99435.81;4954649;28;20473;-82
2021/12/08 08:45:57;;;;;;;25.02;14.75;;;;;;;-2.24;74.05;99414.38;4962770;28;20055;-82
2021/12/08 08:48:26;;;;;;;26.35;15.00;;;;;;;-2.17;73.58;99428.19;4977138;28;20050;-83
2021/12/08 08:51:11;;;;;;;24.48;15.27;;;;;;;-2.27;73.79;99424.41;4961173;28;20057;-82
2021/12/08 08:53:38;;;;;;;22.73;14.02;;;;;;;-2.19;74.17;99428.13;4977430;28;20043;-84
2021/12/08 08:56:08;;;;;;;28.55;16.48;;;;;;;-2.23;74.25;99426.28;4944873;28;20080;-84
2021/12/08 08:58:35;;;;;;;27.80;16.40;;;;;;;-2.18;74.33;99434.97;4960595;28;20134;-83
2021/12/08 09:01:26;;;;;;;29.50;16.75;;;;;;;-2.21;74.24;99434.81;4944682;28;20046;-84
2021/12/08 09:03:58;;;;;;;29.42;16.77;;;;;;;-2.14;73.89;99429.19;4960771;28;20050;-82
2021/12/08 09:06:30;;;;;;;30.63;16.58;;;;;;;-2.09;73.81;99435.34;4959099;28;20064;-83
2021/12/08 09:08:56;;;;;;;30.55;16.75;;;;;;;-2.17;73.69;99436.69;4959563;28;20076;-83
2021/12/08 09:11:28;;;;;;;29.80;16.65;;;;;;;-2.25;74.21;99435.47;4959741;28;20161;-83
2021/12/08 09:14:27;;;;;;;29.08;16.45;;;;;;;-2.21;74.15;99439.91;4960232;28;20050;-86
2021/12/08 09:17:00;;;;;;;38.28;23.23;;;;;;;-2.23;73.96;99441.50;4978047;28;20042;-82
2021/12/08 09:19:32;;;;;;;30.23;16.75;;;;;;;-2.23;74.20;99426.28;4979496;28;20054;-83
2021/12/08 09:22:08;;;;;;;27.27;16.13;;;;;;;-2.15;74.25;99435.09;4945157;28;20046;-83
2021/12/08 09:24:48;;;;;;;29.52;16.27;;;;;;;-2.19;73.88;99447.59;4963087;28;20045;-85
2021/12/08 09:27:25;;;;;;;34.70;16.90;;;;;;;-2.19;73.98;99457.78;4962948;28;20122;-82
2021/12/08 09:29:57;;;;;;;31.60;17.40;;;;;;;-2.26;74.41;99451.53;4945700;28;20047;-83
2021/12/08 09:32:51;;;;;;;29.00;16.30;;;;;;;-2.27;74.54;99444.72;4977090;28;20046;-84
2021/12/08 09:35:21;;;;;;;29.60;16.08;;;;;;;-2.12;74.28;99432.66;4965802;28;20137;-82
2021/12/08 09:37:59;;;;;;;27.88;14.52;;;;;;;-2.13;74.09;99417.38;4952176;28;20041;-82
2021/12/08 09:40:37;;;;;;;27.35;15.43;;;;;;;-2.27;74.45;99421.84;4952058;28;20158;-82
2021/12/08 09:43:28;;;;;;;35.15;18.83;;;;;;;-2.29;75.13;99431.09;4944374;28;20045;-82
2021/12/08 09:46:10;;;;;;;29.70;17.00;;;;;;;-2.26;75.01;99433.75;4950253;28;20046;-83
2021/12/08 09:48:40;;;;;;;33.03;17.15;;;;;;;-2.22;75.15;99428.00;4971160;28;20053;-83
2021/12/08 09:51:06;;;;;;;29.40;16.80;;;;;;;-2.15;75.28;99430.00;4955012;28;20502;-83
2021/12/08 09:53:33;;;;;;;34.20;17.33;;;;;;;-2.09;75.45;99430.25;4998448;28;20033;-82
2021/12/08 09:55:59;;;;;;;35.33;18.25;;;;;;;-2.28;74.97;99420.13;5003036;28;20084;-83
2021/12/08 09:58:25;;;;;;;32.03;17.77;;;;;;;-2.25;75.52;99432.94;4972084;28;20120;-83
2021/12/08 10:00:54;;;;;;;33.38;16.90;;;;;;;-2.25;76.25;99435.47;4971797;28;20498;-82
2021/12/08 10:03:21;;;;;;;34.50;19.45;;;;;;;-2.24;75.87;99439.78;4975457;28;20050;-83
2021/12/08 10:05:47;;;;;;;;;;;;;;;-2.22;76.00;99440.69;4974868;28;20026;-83
2021/12/08 10:08:13;;;;;;;34.78;16.80;;;;;;;-2.09;75.47;99445.50;4973896;28;19924;-84
2021/12/08 10:10:41;;;;;;;33.22;17.75;;;;;;;-2.14;75.31;99441.03;4939881;28;20045;-83
2021/12/08 10:13:07;;;;;;;33.15;17.17;;;;;;;-2.17;75.31;99431.59;4954747;28;20054;-82
2021/12/08 10:15:33;;;;;;;29.70;16.85;;;;;;;-2.22;75.07;99425.47;4969914;28;20046;-82
2021/12/08 10:17:59;;;;;;;32.75;16.67;;;;;;;-2.23;75.50;99430.47;4954537;28;20097;-85
2021/12/08 10:20:26;;;;;;;30.98;17.15;;;;;;;-2.26;75.77;99422.72;4972580;28;20038;-83
2021/12/08 10:23:32;;;;;;;32.08;16.90;;;;;;;-2.30;75.70;99429.34;4975849;28;20042;-84
2021/12/08 10:26:08;;;;;;;31.75;16.70;;;;;;;-2.16;75.70;99414.69;4989548;28;20061;-86
2021/12/08 10:28:44;;;;;;;29.27;16.40;;;;;;;-2.14;75.78;99398.72;4954978;28;20038;-84
2021/12/08 10:31:15;;;;;;;28.52;15.35;;;;;;;-2.22;74.81;99394.97;4968939;28;20045;-82
2021/12/08 10:34:06;;;;;;;33.33;17.52;;;;;;;-2.28;75.28;99386.22;4973184;28;20050;-85
2021/12/08 10:36:56;;;;;;;34.75;18.10;;;;;;;-2.42;75.06;99396.66;4974479;28;20046;-83
2021/12/08 10:39:35;;;;;;;34.00;16.88;;;;;;;-2.37;76.01;99407.03;4974642;28;20054;-83
2021/12/08 10:42:09;;;;;;;32.72;18.08;;;;;;;-2.34;75.57;99402.06;4984911;28;20478;-83
2021/12/08 10:44:57;;;;;;;28.23;16.75;;;;;;;-2.34;75.78;99405.50;4968220;28;20406;-82
2021/12/08 10:47:36;;;;;;;37.35;18.65;;;;;;;-2.36;75.97;99413.84;4969470;28;20038;-82
2021/12/08 10:56:15;;;;;;;33.63;17.67;;;;;;;-2.53;76.58;99419.84;4979943;28;20047;-84
2021/12/08 10:58:49;;;;;;;34.55;16.75;;;;;;;-2.53;76.47;99424.94;4964300;28;20039;-82
2021/12/08 11:01:41;;;;;;;35.05;18.58;;;;;;;-2.53;76.38;99428.34;4947793;28;20050;-83
2021/12/08 11:04:08;;;;;;;38.72;18.60;;;;;;;-2.54;76.16;99425.75;4960095;28;20043;-82
2021/12/08 11:06:35;;;;;;;36.28;18.98;;;;;;;-2.56;76.91;99436.72;4934260;28;20035;-83
2021/12/08 11:09:02;;;;;;;32.95;15.60;;;;;;;-2.51;76.65;99428.44;4963448;28;20043;-82
2021/12/08 11:11:32;;;;;;;31.90;16.92;;;;;;;-2.48;76.34;99418.38;4966330;28;20442;-83
2021/12/08 11:14:00;;;;;;;32.65;17.70;;;;;;;-2.42;76.97;99414.44;4967020;28;20047;-84
2021/12/08 11:16:37;;;;;;;34.58;17.52;;;;;;;-2.48;76.37;99408.22;4933388;28;20043;-82
2021/12/08 11:19:14;;;;;;;35.13;17.45;;;;;;;-2.47;76.29;99410.84;4964920;28;20129;-84
2021/12/08 11:21:48;;;;;;;36.47;18.40;;;;;;;-2.47;76.69;99409.97;4949333;28;20050;-85
2021/12/08 11:24:31;;;;;;;33.28;16.92;;;;;;;-2.48;75.80;99408.22;4949621;28;20049;-82
2021/12/08 11:26:57;;;;;;;35.03;18.15;;;;;;;-2.57;75.91;99396.88;4963999;28;20050;-83
2021/12/08 11:29:27;;;;;;;33.55;16.33;;;;;;;-2.40;75.96;99411.97;4967554;28;20034;-83
2021/12/08 11:32:03;;;;;;;33.70;17.65;;;;;;;-2.39;74.89;99413.69;4964271;28;20068;-82
2021/12/08 11:34:29;;;;;;;32.50;17.20;;;;;;;-2.30;74.47;99431.88;4966303;28;20062;-83
2021/12/08 11:36:58;;;;;;;29.55;15.57;;;;;;;-2.32;74.49;99430.97;4979656;28;20402;-83
2021/12/08 11:39:48;;;;;;;32.25;16.92;;;;;;;-2.42;74.11;99436.44;4957556;28;20046;-83
2021/12/08 11:42:24;;;;;;;31.00;14.98;;;;;;;-2.43;74.45;99437.22;4975787;28;20118;-82
2021/12/08 11:44:55;;;;;;;31.55;17.17;;;;;;;-2.49;74.00;99424.28;4953928;28;20049;-83
2021/12/08 11:47:28;;;;;;;33.13;16.90;;;;;;;-2.49;74.15;99431.88;4951187;28;20038;-81
2021/12/08 11:49:58;;;;;;;31.13;14.75;;;;;;;-2.53;74.29;99430.00;4983194;28;20053;-82
2021/12/08 11:52:29;;;;;;;34.97;15.95;;;;;;;-2.57;74.55;99427.34;4967585;28;20050;-83
2021/12/08 11:55:00;;;;;;;32.75;16.30;;;;;;;-2.52;74.13;99434.28;4966844;28;20048;-83
2021/12/08 11:57:34;;;;;;;36.67;16.40;;;;;;;-2.60;74.33;99450.06;4935100;28;20038;-84
2021/12/08 12:00:04;;;;;;;31.90;15.88;;;;;;;-2.65;74.48;99432.91;4973091;28;20053;-82
2021/12/08 12:03:08;;;;;;;30.08;15.38;;;;;;;-2.48;74.12;99443.78;4955307;28;20042;-81
2021/12/08 12:05:44;;;;;;;;;;;;;;;-2.61;73.37;99448.34;4954200;28;20054;-83
2021/12/08 12:08:11;;;;;;;30.50;15.60;;;;;;;-2.58;73.54;99447.59;4982735;28;19918;-82
2021/12/08 12:10:40;;;;;;;36.83;17.40;;;;;;;-2.64;73.14;99435.50;4983051;28;20046;-81
2021/12/08 12:13:08;;;;;;;31.85;13.98;;;;;;;-2.65;74.01;99432.91;4951052;28;20140;-83
2021/12/08 12:15:35;;;;;;;32.28;15.88;;;;;;;-2.67;73.52;99426.88;4952511;28;20042;-83